Time;durP1;ratioP1;P1;durP2;ratioP2;P2;SDS_P1;SDS_P2;PMS_P1;PMS_P2;Temp;Humidity;BMP_temperature;BMP_pressure;BME280_temperature;BME280_humidity;BME280_pressure;Samples;Min_cycle;Max_cycle;Signal;HPM_P1;HPM_P2
2021/09/29 00:00:53;;;;;;;11.20;5.95;;;;;;;;;;4993215;28;20050;-79
2021/09/29 00:03:19;;;;;;;8.60;5.18;;;;;;;;;;4992725;28;20411;-78
2021/09/29 00:05:44;;;;;;;10.38;5.32;;;;;;;;;;4993255;28;20038;-79
2021/09/29 00:08:10;;;;;;;9.30;6.50;;;;;;;;;;4993504;28;20077;-78
2021/09/29 00:10:37;;;;;;;8.73;5.25;;;;;;;;;;4992865;28;20022;-79
2021/09/29 00:13:03;;;;;;;8.48;5.13;;;;;;;;;;4992532;28;20547;-80
2021/09/29 00:15:28;;;;;;;11.82;6.00;;;;;;;;;;4993828;28;20089;-80
2021/09/29 00:17:54;;;;;;;14.82;7.10;;;;;;;;;;4993679;28;20034;-78
2021/09/29 00:20:19;;;;;;;11.70;5.75;;;;;;;;;;4994423;28;20038;-80
2021/09/29 00:22:45;;;;;;;11.50;5.80;;;;;;;;;;4994398;28;20141;-79
2021/09/29 00:25:14;;;;;;;11.80;6.13;;;;;;;;;;4991800;28;20125;-79
2021/09/29 00:27:41;;;;;;;12.00;6.57;;;;;;;;;;4997402;28;20089;-79
2021/09/29 00:30:08;;;;;;;10.15;6.30;;;;;;;;;;4995162;28;20031;-81
2021/09/29 00:32:35;;;;;;;10.15;5.80;;;;;;;;;;4994573;28;20046;-81
2021/09/29 00:35:01;;;;;;;10.15;5.50;;;;;;;;;;4992071;28;20038;-80
2021/09/29 00:37:28;;;;;;;11.43;6.40;;;;;;;;;;4993884;28;20077;-81
2021/09/29 00:39:54;;;;;;;10.98;6.63;;;;;;;;;;4993113;28;20041;-80
2021/09/29 00:42:19;;;;;;;13.20;6.93;;;;;;;;;;4993833;28;20034;-79
2021/09/29 00:44:45;;;;;;;12.90;6.32;;;;;;;;;;4993192;28;20125;-79
2021/09/29 00:47:11;;;;;;;16.08;7.90;;;;;;;;;;4992662;28;20065;-78
2021/09/29 00:49:36;;;;;;;11.82;7.03;;;;;;;;;;4993765;28;20065;-80
2021/09/29 00:52:02;;;;;;;14.80;6.90;;;;;;;;;;4992336;28;20027;-80
2021/09/29 00:54:29;;;;;;;10.98;8.85;;;;;;;;;;4993993;28;20474;-79
2021/09/29 00:56:55;;;;;;;15.25;6.97;;;;;;;;;;4993897;28;20034;-78
2021/09/29 00:59:21;;;;;;;12.15;7.30;;;;;;;;;;4994157;28;20054;-81
2021/09/29 01:01:47;;;;;;;13.52;7.35;;;;;;;;;;4997095;28;20038;-81
2021/09/29 01:04:13;;;;;;;13.85;6.70;;;;;;;;;;4994108;28;20034;-80
2021/09/29 01:06:47;;;;;;;12.43;7.40;;;;;;;;;;4972655;28;20030;-78
2021/09/29 01:09:29;;;;;;;14.15;7.65;;;;;;;;;;4990402;28;20038;-77
2021/09/29 01:12:18;;;;;;;12.85;8.90;;;;;;;;;;4991149;28;20588;-79
2021/09/29 01:14:48;;;;;;;;;;;;;;;;;;4989771;28;20038;-78
2021/09/29 01:17:17;;;;;;;11.00;6.50;;;;;;;;;;4993764;28;19917;-79
2021/09/29 01:20:05;;;;;;;15.40;7.03;;;;;;;;;;4994943;28;20550;-79
2021/09/29 01:23:12;;;;;;;14.77;7.10;;;;;;;;;;4995771;28;20049;-78
2021/09/29 01:25:59;;;;;;;11.85;6.53;;;;;;;;;;4968934;28;20046;-78
2021/09/29 01:28:38;;;;;;;11.80;7.18;;;;;;;;;;5001963;28;20496;-81
2021/09/29 01:31:04;;;;;;;15.30;7.43;;;;;;;;;;5000435;28;20026;-79
2021/09/29 01:33:32;;;;;;;16.58;7.68;;;;;;;;;;5001210;28;20053;-79
2021/09/29 01:35:57;;;;;;;14.35;7.10;;;;;;;;;;4992171;28;20129;-79
2021/09/29 01:38:24;;;;;;;19.10;7.78;;;;;;;;;;4974684;28;20118;-80
2021/09/29 01:40:50;;;;;;;15.45;8.05;;;;;;;;;;4992061;28;20069;-79
2021/09/29 01:43:15;;;;;;;12.30;6.63;;;;;;;;;;4974243;28;20062;-81
2021/09/29 01:45:45;;;;;;;11.98;7.20;;;;;;;;;;4991325;28;20116;-80
2021/09/29 01:48:11;;;;;;;15.52;6.78;;;;;;;;;;4973288;28;20486;-79
2021/09/29 01:50:39;;;;;;;12.05;7.28;;;;;;;;;;4990594;28;20041;-78
2021/09/29 01:53:08;;;;;;;19.92;7.93;;;;;;;;;;4990752;28;20037;-79
2021/09/29 01:55:34;;;;;;;15.63;6.68;;;;;;;;;;4990573;28;20042;-79
2021/09/29 01:58:00;;;;;;;11.68;7.15;;;;;;;;;;4989547;28;20081;-79
2021/09/29 02:00:25;;;;;;;16.42;8.23;;;;;;;;;;4989437;28;20059;-78
2021/09/29 02:02:56;;;;;;;13.60;7.57;;;;;;;;;;4988932;28;20037;-79
2021/09/29 02:05:31;;;;;;;14.07;6.63;;;;;;;;;;4989171;28;20037;-79
2021/09/29 02:07:58;;;;;;;15.18;8.30;;;;;;;;;;4989458;28;20061;-79
2021/09/29 02:10:24;;;;;;;18.75;8.38;;;;;;;;;;4989255;28;20125;-80
2021/09/29 02:12:49;;;;;;;13.88;8.02;;;;;;;;;;4972330;28;20125;-84
2021/09/29 02:15:15;;;;;;;14.45;7.45;;;;;;;;;;4989478;28;20065;-81
2021/09/29 02:17:40;;;;;;;16.88;8.82;;;;;;;;;;4989391;28;20117;-81
2021/09/29 02:20:06;;;;;;;12.38;6.90;;;;;;;;;;4989252;28;20042;-79
2021/09/29 02:22:32;;;;;;;15.93;9.10;;;;;;;;;;4972821;28;20034;-80
2021/09/29 02:24:58;;;;;;;12.93;6.13;;;;;;;;;;4990300;28;20057;-80
2021/09/29 02:27:23;;;;;;;12.25;6.65;;;;;;;;;;4992177;28;20068;-81
2021/09/29 02:29:49;;;;;;;14.00;6.47;;;;;;;;;;4993609;28;20034;-80
2021/09/29 02:32:14;;;;;;;14.00;6.40;;;;;;;;;;4994944;28;20038;-79
2021/09/29 02:34:40;;;;;;;16.70;8.38;;;;;;;;;;4994178;28;20451;-82
2021/09/29 02:37:05;;;;;;;10.52;6.93;;;;;;;;;;4994724;28;20037;-81
2021/09/29 02:39:32;;;;;;;10.65;6.72;;;;;;;;;;4994861;28;20046;-79
2021/09/29 02:41:57;;;;;;;12.32;7.05;;;;;;;;;;4976607;28;20711;-81
2021/09/29 02:44:22;;;;;;;16.10;7.72;;;;;;;;;;4993865;28;20038;-80
2021/09/29 02:46:48;;;;;;;11.30;6.15;;;;;;;;;;4994006;28;20044;-80
2021/09/29 02:49:13;;;;;;;9.70;6.20;;;;;;;;;;4992599;28;20439;-81
2021/09/29 02:51:38;;;;;;;14.52;9.63;;;;;;;;;;4993881;28;20038;-81
2021/09/29 02:54:04;;;;;;;12.40;9.00;;;;;;;;;;4994047;28;20038;-81
2021/09/29 02:56:29;;;;;;;13.50;6.20;;;;;;;;;;4993719;28;20104;-79
2021/09/29 02:58:57;;;;;;;11.35;6.20;;;;;;;;;;4993428;28;20177;-79
2021/09/29 03:01:22;;;;;;;11.70;6.00;;;;;;;;;;4976006;28;20071;-78
2021/09/29 03:03:48;;;;;;;9.43;5.57;;;;;;;;;;4993203;28;20423;-79
2021/09/29 03:06:14;;;;;;;14.00;6.00;;;;;;;;;;4993520;28;20472;-80
2021/09/29 03:08:39;;;;;;;8.40;5.78;;;;;;;;;;4993359;28;20034;-79
2021/09/29 03:11:05;;;;;;;10.85;5.78;;;;;;;;;;4993580;28;20031;-81
2021/09/29 03:13:30;;;;;;;9.88;5.90;;;;;;;;;;4994103;28;20492;-81
2021/09/29 03:15:55;;;;;;;10.95;6.93;;;;;;;;;;4993673;28;20459;-81
2021/09/29 03:18:21;;;;;;;10.30;6.03;;;;;;;;;;4993446;28;20096;-82
2021/09/29 03:20:46;;;;;;;11.13;6.30;;;;;;;;;;4993328;28;20034;-80
2021/09/29 03:23:12;;;;;;;9.75;6.30;;;;;;;;;;4993556;28;20034;-80
2021/09/29 03:25:38;;;;;;;11.13;8.20;;;;;;;;;;4993225;28;20038;-81
2021/09/29 03:28:03;;;;;;;10.30;5.95;;;;;;;;;;4993209;28;20121;-83
2021/09/29 03:30:29;;;;;;;12.80;6.82;;;;;;;;;;4976102;28;20501;-83
2021/09/29 03:32:54;;;;;;;12.50;6.80;;;;;;;;;;4994534;28;20129;-81
2021/09/29 03:35:20;;;;;;;11.18;6.65;;;;;;;;;;4994286;28;20057;-81
2021/09/29 03:37:45;;;;;;;10.45;6.45;;;;;;;;;;4994210;28;20080;-79
2021/09/29 03:40:13;;;;;;;13.52;7.45;;;;;;;;;;4993191;28;20042;-80
2021/09/29 03:42:40;;;;;;;13.70;6.53;;;;;;;;;;4992748;28;20034;-80
2021/09/29 03:45:07;;;;;;;13.35;8.70;;;;;;;;;;4993294;28;20092;-78
2021/09/29 03:47:32;;;;;;;10.93;6.32;;;;;;;;;;4992647;28;20042;-77
2021/09/29 03:49:58;;;;;;;11.90;6.45;;;;;;;;;;4993067;28;20034;-84
2021/09/29 03:52:23;;;;;;;11.55;6.57;;;;;;;;;;4992934;28;20476;-78
2021/09/29 03:54:49;;;;;;;12.50;6.63;;;;;;;;;;4992936;28;20037;-79
2021/09/29 03:57:15;;;;;;;10.85;5.90;;;;;;;;;;4992943;28;20045;-78
2021/09/29 03:59:40;;;;;;;10.15;6.05;;;;;;;;;;4991858;28;20057;-78
2021/09/29 04:02:06;;;;;;;13.05;6.43;;;;;;;;;;4993009;28;20034;-79
2021/09/29 04:04:31;;;;;;;8.63;5.57;;;;;;;;;;4994295;28;20492;-78
2021/09/29 04:06:58;;;;;;;10.85;5.85;;;;;;;;;;4992595;28;20036;-78
2021/09/29 04:09:23;;;;;;;11.65;6.38;;;;;;;;;;4990900;28;20472;-81
2021/09/29 04:11:50;;;;;;;12.15;7.90;;;;;;;;;;4991448;28;20034;-78
2021/09/29 04:14:17;;;;;;;9.57;6.30;;;;;;;;;;4991932;28;20040;-80
2021/09/29 04:16:43;;;;;;;10.15;6.45;;;;;;;;;;4991024;28;20046;-82
2021/09/29 04:19:08;;;;;;;13.02;6.15;;;;;;;;;;4992371;28;20037;-81
2021/09/29 04:21:35;;;;;;;10.93;6.30;;;;;;;;;;4992048;28;20492;-82
2021/09/29 04:24:02;;;;;;;11.02;6.07;;;;;;;;;;4991839;28;20038;-77
2021/09/29 04:26:27;;;;;;;11.52;6.90;;;;;;;;;;4994164;28;20035;-85
2021/09/29 04:28:52;;;;;;;13.13;6.38;;;;;;;;;;4993659;28;20046;-83
2021/09/29 04:31:18;;;;;;;13.52;6.70;;;;;;;;;;4993514;28;20057;-82
2021/09/29 04:33:43;;;;;;;13.68;9.65;;;;;;;;;;4992911;28;20463;-81
2021/09/29 04:36:08;;;;;;;11.68;6.95;;;;;;;;;;4992223;28;20074;-84
2021/09/29 04:38:34;;;;;;;9.68;7.10;;;;;;;;;;4992849;28;20038;-83
2021/09/29 04:40:59;;;;;;;9.50;5.93;;;;;;;;;;4992639;28;20093;-83
2021/09/29 04:43:24;;;;;;;10.77;7.03;;;;;;;;;;4993169;28;20034;-82
2021/09/29 04:45:50;;;;;;;10.93;7.53;;;;;;;;;;4992692;28;20377;-83
2021/09/29 04:48:16;;;;;;;16.13;7.00;;;;;;;;;;4992378;28;20034;-85
2021/09/29 04:50:42;;;;;;;12.65;6.57;;;;;;;;;;4992606;28;20117;-84
2021/09/29 04:53:07;;;;;;;11.45;6.10;;;;;;;;;;4992535;28;20030;-82
2021/09/29 04:55:33;;;;;;;9.90;6.20;;;;;;;;;;4991532;28;20488;-82
2021/09/29 04:58:01;;;;;;;14.45;7.40;;;;;;;;;;4992446;28;20455;-83
2021/09/29 05:00:27;;;;;;;12.00;6.60;;;;;;;;;;4991754;28;20055;-81
2021/09/29 05:02:52;;;;;;;10.70;6.22;;;;;;;;;;4991431;28;20153;-81
2021/09/29 05:05:18;;;;;;;14.43;7.10;;;;;;;;;;4992133;28;20052;-88
2021/09/29 05:07:48;;;;;;;14.93;7.65;;;;;;;;;;4991791;28;20408;-85
2021/09/29 05:10:25;;;;;;;12.85;6.85;;;;;;;;;;4975218;28;20038;-90
2021/09/29 05:12:52;;;;;;;12.13;6.70;;;;;;;;;;4992685;28;20038;-83
2021/09/29 05:15:17;;;;;;;13.07;7.03;;;;;;;;;;4991760;28;20108;-83
2021/09/29 05:17:43;;;;;;;10.15;6.57;;;;;;;;;;4992585;28;20037;-81
2021/09/29 05:20:08;;;;;;;10.52;6.03;;;;;;;;;;4991383;28;20038;-81
2021/09/29 05:22:34;;;;;;;11.38;7.80;;;;;;;;;;4973569;28;20135;-84
2021/09/29 05:24:59;;;;;;;9.40;6.60;;;;;;;;;;4991159;28;20038;-85
2021/09/29 05:27:24;;;;;;;15.48;5.88;;;;;;;;;;4992064;28;20030;-85
2021/09/29 05:29:51;;;;;;;12.05;6.47;;;;;;;;;;4991107;28;20034;-82
2021/09/29 05:32:16;;;;;;;11.50;6.18;;;;;;;;;;4991672;28;20238;-82
2021/09/29 05:34:42;;;;;;;12.25;7.68;;;;;;;;;;4991898;28;20598;-84
2021/09/29 05:37:08;;;;;;;11.32;6.13;;;;;;;;;;4991897;28;20642;-85
2021/09/29 05:39:33;;;;;;;13.90;6.05;;;;;;;;;;4991859;28;20046;-83
2021/09/29 05:41:59;;;;;;;13.00;6.15;;;;;;;;;;4973921;28;20070;-84
2021/09/29 05:44:25;;;;;;;15.07;6.82;;;;;;;;;;4992027;28;20038;-83
2021/09/29 05:46:51;;;;;;;13.68;8.27;;;;;;;;;;4991058;28;20038;-82
2021/09/29 05:49:16;;;;;;;12.38;8.02;;;;;;;;;;4991110;28;20507;-81
2021/09/29 05:51:45;;;;;;;15.80;9.23;;;;;;;;;;4990754;28;20055;-82
2021/09/29 05:54:10;;;;;;;17.95;13.25;;;;;;;;;;4990587;28;20045;-83
2021/09/29 05:56:35;;;;;;;21.05;15.65;;;;;;;;;;4990683;28;20030;-82
2021/09/29 05:59:01;;;;;;;18.60;11.25;;;;;;;;;;4990831;28;20042;-83
2021/09/29 06:01:26;;;;;;;12.55;8.77;;;;;;;;;;4990401;28;20121;-82
2021/09/29 06:03:52;;;;;;;22.52;12.30;;;;;;;;;;4991380;28;20472;-83
2021/09/29 06:06:17;;;;;;;16.02;9.80;;;;;;;;;;4991064;28;20042;-82
2021/09/29 06:08:42;;;;;;;13.40;8.80;;;;;;;;;;4973547;28;20038;-83
2021/09/29 06:11:08;;;;;;;10.93;8.00;;;;;;;;;;4991582;28;20053;-85
2021/09/29 06:13:33;;;;;;;11.48;7.90;;;;;;;;;;4991560;28;20037;-83
2021/09/29 06:16:06;;;;;;;12.50;8.82;;;;;;;;;;4993724;28;20044;-83
2021/09/29 06:18:35;;;;;;;12.95;7.90;;;;;;;;;;4981670;28;20030;-82
2021/09/29 06:21:01;;;;;;;11.02;7.00;;;;;;;;;;4998134;28;20042;-83
2021/09/29 06:23:27;;;;;;;9.68;6.18;;;;;;;;;;4995954;28;20034;-81
2021/09/29 06:25:52;;;;;;;10.65;6.40;;;;;;;;;;4994479;28;20042;-83
2021/09/29 06:28:18;;;;;;;14.50;7.38;;;;;;;;;;4994758;28;20034;-83
2021/09/29 06:30:43;;;;;;;18.23;7.38;;;;;;;;;;4992444;28;20045;-82
2021/09/29 06:33:09;;;;;;;10.80;6.57;;;;;;;;;;4990931;28;20038;-80
2021/09/29 06:35:35;;;;;;;10.85;6.55;;;;;;;;;;4974072;28;20073;-84
2021/09/29 06:38:01;;;;;;;12.95;7.63;;;;;;;;;;4991485;28;20042;-84
2021/09/29 06:40:27;;;;;;;11.38;6.35;;;;;;;;;;4991925;28;20045;-82
2021/09/29 06:42:53;;;;;;;8.75;6.35;;;;;;;;;;4992529;28;20062;-83
2021/09/29 06:45:20;;;;;;;14.35;6.75;;;;;;;;;;4995780;28;20031;-83
2021/09/29 06:47:48;;;;;;;13.48;7.57;;;;;;;;;;4993286;28;20057;-82
2021/09/29 06:50:16;;;;;;;13.45;7.20;;;;;;;;;;4997094;28;20035;-83
2021/09/29 06:52:41;;;;;;;12.85;6.60;;;;;;;;;;4981547;28;20492;-83
2021/09/29 06:55:07;;;;;;;14.63;8.35;;;;;;;;;;4998939;28;20038;-82
2021/09/29 06:57:33;;;;;;;14.15;6.80;;;;;;;;;;4997519;28;20057;-83
2021/09/29 06:59:58;;;;;;;12.23;6.53;;;;;;;;;;4984414;28;20077;-83
2021/09/29 07:02:24;;;;;;;15.75;9.88;;;;;;;;;;4998524;28;20051;-80
2021/09/29 07:04:49;;;;;;;13.70;8.35;;;;;;;;;;4996473;28;20049;-82
2021/09/29 07:07:15;;;;;;;13.57;9.88;;;;;;;;;;5001435;28;20096;-83
2021/09/29 07:09:41;;;;;;;15.15;12.32;;;;;;;;;;5003782;28;20399;-82
2021/09/29 07:12:07;;;;;;;11.55;7.47;;;;;;;;;;5001711;28;20031;-84
2021/09/29 07:14:32;;;;;;;13.75;6.22;;;;;;;;;;4976446;28;20472;-84
2021/09/29 07:17:00;;;;;;;11.18;6.97;;;;;;;;;;4995417;28;20034;-87
2021/09/29 07:19:27;;;;;;;10.77;6.47;;;;;;;;;;4994651;28;20045;-86
2021/09/29 07:21:52;;;;;;;15.38;8.05;;;;;;;;;;4994526;28;20026;-85
2021/09/29 07:24:18;;;;;;;12.38;9.88;;;;;;;;;;4994264;28;20356;-83
2021/09/29 07:26:44;;;;;;;20.30;11.95;;;;;;;;;;4976504;28;20042;-83
2021/09/29 07:29:12;;;;;;;20.63;15.00;;;;;;;;;;4994166;28;20038;-84
2021/09/29 07:31:38;;;;;;;19.27;11.25;;;;;;;;;;4994207;28;20568;-84
2021/09/29 07:34:04;;;;;;;15.73;9.55;;;;;;;;;;4994743;28;20038;-82
2021/09/29 07:36:29;;;;;;;13.18;8.48;;;;;;;;;;4994678;28;20117;-82
2021/09/29 07:38:56;;;;;;;13.57;7.90;;;;;;;;;;4994498;28;20120;-82
2021/09/29 07:41:21;;;;;;;13.07;7.25;;;;;;;;;;4994412;28;20142;-80
2021/09/29 07:43:47;;;;;;;11.75;6.80;;;;;;;;;;4990715;28;20154;-81
2021/09/29 07:46:12;;;;;;;11.48;7.43;;;;;;;;;;4994091;28;20092;-82
2021/09/29 07:48:38;;;;;;;12.73;6.45;;;;;;;;;;4992908;28;20108;-82
2021/09/29 07:51:05;;;;;;;11.07;8.15;;;;;;;;;;4992869;28;20411;-82
2021/09/29 07:53:31;;;;;;;12.73;6.32;;;;;;;;;;4993077;28;20026;-83
2021/09/29 07:55:56;;;;;;;11.40;7.22;;;;;;;;;;4994103;28;20391;-84
2021/09/29 07:58:25;;;;;;;10.88;6.03;;;;;;;;;;4993193;28;20054;-83
2021/09/29 08:00:50;;;;;;;9.48;7.15;;;;;;;;;;4994131;28;20524;-83
2021/09/29 08:03:16;;;;;;;11.23;6.07;;;;;;;;;;4995760;28;20098;-83
2021/09/29 08:05:41;;;;;;;11.57;7.20;;;;;;;;;;4993140;28;20042;-82
2021/09/29 08:08:07;;;;;;;9.95;5.70;;;;;;;;;;4977328;28;20030;-82
2021/09/29 08:10:33;;;;;;;8.25;5.88;;;;;;;;;;4993929;28;20557;-86
2021/09/29 08:12:59;;;;;;;11.48;10.35;;;;;;;;;;4976056;28;20385;-82
2021/09/29 08:15:24;;;;;;;12.98;11.68;;;;;;;;;;4994064;28;20054;-83
2021/09/29 08:17:54;;;;;;;11.00;8.50;;;;;;;;;;4994532;28;20118;-82
2021/09/29 08:20:20;;;;;;;14.50;8.55;;;;;;;;;;4976522;28;20465;-82
2021/09/29 08:22:49;;;;;;;8.80;5.63;;;;;;;;;;4994964;28;20030;-84
2021/09/29 08:25:28;;;;;;;11.65;5.78;;;;;;;;;;4994528;28;20061;-82
2021/09/29 08:36:00;;;;;;;11.48;4.85;;;;;;;;;;4991167;28;20092;-82
2021/09/29 08:38:31;;;;;;;9.80;5.85;;;;;;;;;;4991528;28;20046;-81
2021/09/29 08:46:34;;;;;;;12.40;6.25;;;;;;;;;;4937251;28;20047;-83
2021/09/29 08:49:07;;;;;;;13.02;6.93;;;;;;;;;;4990701;28;20042;-80
2021/09/29 08:54:42;;;;;;;12.73;8.15;;;;;;;;;;4990787;28;20839;-81
2021/09/29 08:57:22;;;;;;;13.60;8.25;;;;;;;;;;4990279;28;20066;-83
2021/09/29 09:16:34;;;;;;;10.18;6.15;;;;;;;;;;4990859;28;20061;-81
2021/09/29 09:19:03;;;;;;;10.10;4.82;;;;;;;;;;4991369;28;20030;-80
2021/09/29 09:21:30;;;;;;;12.65;7.68;;;;;;;;;;4991315;28;20046;-79
2021/09/29 09:23:56;;;;;;;10.35;6.70;;;;;;;;;;4991887;28;20085;-83
2021/09/29 09:26:24;;;;;;;10.23;5.43;;;;;;;;;;4991987;28;20042;-82
2021/09/29 09:29:03;;;;;;;7.80;5.57;;;;;;;;;;4992144;28;20046;-82
2021/09/29 09:31:29;;;;;;;10.30;5.28;;;;;;;;;;4991266;28;20129;-82
2021/09/29 09:34:00;;;;;;;11.40;6.80;;;;;;;;;;4991635;28;20544;-81
2021/09/29 09:36:41;;;;;;;9.27;5.13;;;;;;;;;;4972827;28;20572;-82
2021/09/29 09:39:11;;;;;;;9.27;5.03;;;;;;;;;;4991046;28;20088;-81
2021/09/29 09:41:37;;;;;;;13.02;5.50;;;;;;;;;;4991497;28;20034;-81
2021/09/29 09:44:05;;;;;;;13.38;6.35;;;;;;;;;;4991343;28;20447;-82
2021/09/29 09:46:30;;;;;;;8.15;5.97;;;;;;;;;;4992030;28;20038;-81
2021/09/29 09:49:08;;;;;;;10.18;6.15;;;;;;;;;;4991406;28;20035;-80
2021/09/29 09:51:49;;;;;;;14.73;6.10;;;;;;;;;;4991018;28;20050;-82
2021/09/29 09:54:15;;;;;;;13.57;7.00;;;;;;;;;;4990530;28;20033;-81
2021/09/29 09:56:47;;;;;;;9.73;5.72;;;;;;;;;;4990591;28;20629;-82
2021/09/29 09:59:13;;;;;;;12.52;6.07;;;;;;;;;;4972592;28;20081;-81
2021/09/29 10:01:41;;;;;;;10.48;6.10;;;;;;;;;;4973312;28;20050;-81
2021/09/29 10:04:09;;;;;;;10.35;5.82;;;;;;;;;;4990526;28;20030;-80
2021/09/29 10:06:35;;;;;;;8.68;5.70;;;;;;;;;;4973526;28;20061;-81
2021/09/29 10:14:36;;;;;;;8.57;5.75;;;;;;;;;;4990856;28;20031;-83
2021/09/29 10:27:58;;;;;;;12.30;6.50;;;;;;;;;;4952708;29;20511;-83
2021/09/29 10:30:37;;;;;;;7.90;5.18;;;;;;;;;;4970773;23;20141;-83
2021/09/29 10:33:05;;;;;;;11.68;6.13;;;;;;;;;;4974019;28;20438;-85
2021/09/29 10:35:42;;;;;;;7.57;5.28;;;;;;;;;;4974324;28;20533;-85
2021/09/29 10:44:00;;;;;;;13.30;5.88;;;;;;;;;;4992213;28;20030;-83
2021/09/29 10:46:51;;;;;;;12.57;8.27;;;;;;;;;;4991842;28;20395;-85
2021/09/29 11:29:54;;;;;;;10.00;5.75;;;;;;;;;;4993172;28;20170;-78
2021/09/29 11:32:26;;;;;;;9.90;5.43;;;;;;;;;;4993350;28;20037;-75
2021/09/29 11:34:54;;;;;;;9.38;6.03;;;;;;;;;;4993433;28;20034;-75
2021/09/29 11:37:38;;;;;;;9.25;5.78;;;;;;;;;;4976342;28;20037;-78
2021/09/29 12:11:27;;;;;;;10.90;6.15;;;;;;;;;;4992630;28;20034;-78
2021/09/29 12:14:00;;;;;;;8.02;5.40;;;;;;;;;;4975524;28;20034;-83
2021/09/29 12:16:30;;;;;;;10.27;6.00;;;;;;;;;;4992576;28;20034;-80
2021/09/29 12:18:58;;;;;;;9.65;5.82;;;;;;;;;;4992214;28;20038;-80
2021/09/29 12:21:41;;;;;;;9.10;7.53;;;;;;;;;;4992244;28;20377;-78
2021/09/29 12:24:09;;;;;;;7.00;4.65;;;;;;;;;;4991691;28;20207;-79
2021/09/29 12:26:50;;;;;;;9.27;5.35;;;;;;;;;;4975035;28;20046;-81
2021/09/29 12:30:19;;;;;;;7.95;4.97;;;;;;;;;;4974151;28;20069;-81
2021/09/29 12:37:12;;;;;;;11.43;6.85;;;;;;;;;;4992148;28;20077;-80
2021/09/29 12:39:39;;;;;;;13.05;6.38;;;;;;;;;;4974935;28;20034;-80
2021/09/29 12:42:05;;;;;;;15.82;7.40;;;;;;;;;;4974656;28;20040;-80
2021/09/29 12:44:31;;;;;;;12.15;5.93;;;;;;;;;;4991970;28;20039;-79
2021/09/29 12:47:22;;;;;;;11.73;5.93;;;;;;;;;;4992154;28;20101;-79
2021/09/29 12:49:48;;;;;;;13.13;7.60;;;;;;;;;;4974482;28;20085;-81
2021/09/29 12:52:33;;;;;;;11.73;6.97;;;;;;;;;;4974584;28;20034;-82
2021/09/29 12:55:00;;;;;;;11.75;7.00;;;;;;;;;;4973902;28;20150;-80
2021/09/29 12:57:30;;;;;;;10.57;7.07;;;;;;;;;;4991810;28;20037;-79
2021/09/29 12:59:58;;;;;;;;;;;;;;;;;;4992328;28;20031;-82
2021/09/29 13:02:24;;;;;;;13.90;6.95;;;;;;;;;;4974166;28;19913;-80
2021/09/29 13:04:50;;;;;;;10.02;6.85;;;;;;;;;;4991815;28;20045;-80
2021/09/29 13:07:15;;;;;;;11.32;6.90;;;;;;;;;;4991260;28;20470;-81
2021/09/29 13:09:41;;;;;;;10.38;7.00;;;;;;;;;;4991795;28;20604;-80
2021/09/29 13:12:06;;;;;;;12.40;7.40;;;;;;;;;;4973752;28;20030;-80
2021/09/29 13:14:32;;;;;;;10.52;6.03;;;;;;;;;;4992238;28;20453;-80
2021/09/29 13:16:57;;;;;;;8.45;6.15;;;;;;;;;;4992552;28;20030;-79
2021/09/29 13:19:30;;;;;;;9.93;6.65;;;;;;;;;;4975319;28;20133;-80
2021/09/29 13:21:59;;;;;;;10.40;6.57;;;;;;;;;;4991531;28;20034;-79
2021/09/29 13:37:33;;;;;;;12.30;5.82;;;;;;;;;;4991170;28;20040;-80
2021/09/29 13:39:58;;;;;;;9.88;6.43;;;;;;;;;;4991537;28;20030;-83
2021/09/29 13:42:24;;;;;;;9.23;6.63;;;;;;;;;;4991481;28;20042;-85
2021/09/29 13:44:49;;;;;;;10.32;6.38;;;;;;;;;;4992369;28;20038;-83
2021/09/29 13:47:14;;;;;;;9.68;5.85;;;;;;;;;;4992022;28;20075;-83
2021/09/29 13:49:40;;;;;;;12.25;6.53;;;;;;;;;;4991591;28;20077;-81
2021/09/29 13:52:10;;;;;;;10.18;6.22;;;;;;;;;;4991411;28;20061;-82
2021/09/29 13:54:36;;;;;;;10.18;6.18;;;;;;;;;;4974442;28;20050;-80
2021/09/29 13:57:52;;;;;;;9.02;5.97;;;;;;;;;;4974739;28;20483;-82
2021/09/29 14:29:52;;;;;;;3.45;3.00;;;;;;;;;;5001970;28;20048;-83
2021/09/29 14:32:23;;;;;;;7.15;2.95;;;;;;;;;;4978674;28;20049;-82
2021/09/29 14:34:49;;;;;;;6.50;3.63;;;;;;;;;;4978270;28;20034;-82
2021/09/29 14:37:15;;;;;;;4.53;3.25;;;;;;;;;;4995502;28;20137;-85
2021/09/29 14:39:41;;;;;;;6.93;3.60;;;;;;;;;;4994928;28;20081;-84
2021/09/29 14:42:07;;;;;;;8.52;4.00;;;;;;;;;;4995186;28;20034;-81
2021/09/29 14:44:34;;;;;;;5.75;3.75;;;;;;;;;;4994985;28;20030;-80
2021/09/29 14:47:02;;;;;;;8.60;4.57;;;;;;;;;;4994524;28;20042;-84
2021/09/29 14:49:28;;;;;;;5.35;3.55;;;;;;;;;;4977098;28;20594;-81
2021/09/29 14:51:58;;;;;;;6.15;4.00;;;;;;;;;;4994478;28;20038;-82
2021/09/29 14:54:24;;;;;;;5.63;4.07;;;;;;;;;;4995201;28;20034;-78
2021/09/29 14:56:53;;;;;;;9.35;3.88;;;;;;;;;;4994919;28;20034;-80
2021/09/29 14:59:18;;;;;;;9.00;4.53;;;;;;;;;;4995208;28;20045;-82
2021/09/29 15:01:44;;;;;;;6.00;4.60;;;;;;;;;;4995947;28;20117;-85
2021/09/29 15:04:09;;;;;;;10.25;5.80;;;;;;;;;;4977654;28;20033;-82
2021/09/29 15:06:37;;;;;;;8.25;5.43;;;;;;;;;;4994784;28;20034;-83
2021/09/29 15:09:02;;;;;;;6.38;4.10;;;;;;;;;;4976729;28;20030;-82
2021/09/29 15:11:27;;;;;;;6.95;5.05;;;;;;;;;;4993928;28;20141;-81
2021/09/29 15:13:56;;;;;;;6.75;4.63;;;;;;;;;;4994714;28;20057;-81
2021/09/29 15:16:33;;;;;;;8.07;5.05;;;;;;;;;;4976995;28;20069;-80
2021/09/29 15:24:52;;;;;;;5.72;4.68;;;;;;;;;;4994317;28;20085;-82
2021/09/29 15:48:23;;;;;;;9.27;4.90;;;;;;;;;;4994366;28;20557;-82
2021/09/29 15:50:58;;;;;;;;;;;;;;;;;;4994134;28;20034;-82
2021/09/29 15:56:22;;;;;;;9.15;6.20;;;;;;;;;;4993896;28;20149;-82
2021/09/29 15:59:00;;;;;;;11.48;5.63;;;;;;;;;;4993971;28;20034;-80
2021/09/29 16:01:37;;;;;;;7.63;5.45;;;;;;;;;;4994183;28;20120;-82
2021/09/29 16:19:46;;;;;;;10.88;7.00;;;;;;;;;;4995007;28;20049;-82
2021/09/29 16:30:28;;;;;;;8.60;5.15;;;;;;;;;;4997316;28;20064;-80
2021/09/29 16:35:37;;;;;;;10.10;7.07;;;;;;;;;;4993537;28;20403;-82
2021/09/29 16:38:03;;;;;;;8.75;5.55;;;;;;;;;;4993186;28;20030;-83
2021/09/29 16:40:29;;;;;;;8.82;5.75;;;;;;;;;;4993565;28;20459;-80
2021/09/29 16:42:57;;;;;;;12.10;5.95;;;;;;;;;;4959533;28;20026;-81
2021/09/29 16:45:25;;;;;;;8.80;5.72;;;;;;;;;;4975722;28;20054;-82
2021/09/29 16:47:52;;;;;;;10.02;5.93;;;;;;;;;;4975528;28;20031;-85
2021/09/29 16:50:19;;;;;;;9.13;6.07;;;;;;;;;;4992739;28;20080;-83
2021/09/29 16:52:47;;;;;;;8.63;5.93;;;;;;;;;;4992976;28;20125;-82
2021/09/29 16:55:18;;;;;;;8.10;5.72;;;;;;;;;;4992623;28;20069;-81
2021/09/29 16:57:49;;;;;;;9.80;6.05;;;;;;;;;;4977707;28;20129;-81
2021/09/29 17:00:28;;;;;;;6.65;4.80;;;;;;;;;;4993348;28;20072;-82
2021/09/29 17:02:54;;;;;;;7.10;5.03;;;;;;;;;;4992385;28;20034;-83
2021/09/29 17:05:19;;;;;;;9.18;6.28;;;;;;;;;;4993008;28;20400;-82
2021/09/29 17:07:45;;;;;;;9.13;5.90;;;;;;;;;;4992483;28;20038;-83
2021/09/29 17:10:13;;;;;;;8.88;5.70;;;;;;;;;;4992254;28;20119;-84
2021/09/29 17:12:39;;;;;;;9.05;4.63;;;;;;;;;;4975279;28;20041;-82
2021/09/29 17:15:05;;;;;;;9.70;7.43;;;;;;;;;;4974728;28;20418;-84
2021/09/29 17:17:31;;;;;;;10.60;6.80;;;;;;;;;;4992102;28;20034;-81
2021/09/29 17:19:56;;;;;;;8.20;5.85;;;;;;;;;;4992484;28;20038;-83
2021/09/29 17:22:23;;;;;;;8.18;6.47;;;;;;;;;;4991794;28;20400;-83
2021/09/29 17:24:49;;;;;;;10.23;6.70;;;;;;;;;;4992111;28;20163;-81
2021/09/29 17:27:18;;;;;;;9.68;6.30;;;;;;;;;;4974696;28;20089;-84
2021/09/29 17:29:43;;;;;;;9.88;6.45;;;;;;;;;;4992046;28;20046;-80
2021/09/29 17:32:17;;;;;;;9.52;6.38;;;;;;;;;;4974803;28;20038;-82
2021/09/29 17:35:07;;;;;;;10.20;5.32;;;;;;;;;;4991942;28;20061;-82
2021/09/29 17:53:48;;;;;;;10.25;6.07;;;;;;;;;;4992763;28;20133;-81
2021/09/29 17:56:13;;;;;;;8.57;6.20;;;;;;;;;;4991566;28;20496;-82
2021/09/29 17:58:39;;;;;;;9.02;6.38;;;;;;;;;;4991697;28;20038;-83
2021/09/29 18:01:04;;;;;;;10.95;7.03;;;;;;;;;;4991611;28;20057;-84
2021/09/29 18:06:13;;;;;;;9.18;6.30;;;;;;;;;;4992293;28;20045;-82
2021/09/29 18:08:42;;;;;;;11.02;6.20;;;;;;;;;;4992317;28;20026;-82
2021/09/29 18:11:08;;;;;;;9.63;6.70;;;;;;;;;;4991700;28;20039;-82
2021/09/29 18:13:33;;;;;;;14.27;7.28;;;;;;;;;;4991425;28;20038;-82
2021/09/29 18:15:59;;;;;;;11.32;6.10;;;;;;;;;;4992024;28;20088;-83
2021/09/29 18:18:24;;;;;;;10.00;6.15;;;;;;;;;;4991659;28;20037;-83
2021/09/29 18:20:49;;;;;;;15.70;6.90;;;;;;;;;;4991554;28;20042;-85
2021/09/29 18:23:15;;;;;;;13.32;7.78;;;;;;;;;;4991998;28;20455;-83
2021/09/29 18:25:41;;;;;;;13.25;7.68;;;;;;;;;;4992442;28;20039;-81
2021/09/29 18:28:08;;;;;;;10.60;6.68;;;;;;;;;;4991444;28;20030;-83
2021/09/29 18:30:37;;;;;;;12.02;9.07;;;;;;;;;;4992006;28;20692;-81
2021/09/29 18:33:08;;;;;;;12.63;7.50;;;;;;;;;;4992141;28;20026;-82
2021/09/29 18:35:40;;;;;;;12.52;7.85;;;;;;;;;;4991750;28;20468;-82
2021/09/29 18:38:11;;;;;;;11.75;7.22;;;;;;;;;;4991696;28;20510;-81
2021/09/29 18:40:37;;;;;;;10.93;7.22;;;;;;;;;;4991527;28;20037;-81
2021/09/29 18:43:03;;;;;;;12.07;7.30;;;;;;;;;;4991586;28;20037;-81
2021/09/29 18:45:28;;;;;;;11.52;6.65;;;;;;;;;;4991491;28;20042;-81
2021/09/29 18:47:53;;;;;;;8.45;5.85;;;;;;;;;;4991600;28;20042;-81